createdAt,value
2017-12-15T00:01:29.032Z,19.0
2017-12-15T00:11:28.262Z,13.1
2017-12-15T00:21:27.338Z,13.7
2017-12-15T00:31:28.170Z,18.1
2017-12-15T00:41:28.594Z,19.6
2017-12-15T00:51:27.372Z,14.9
2017-12-15T01:01:26.741Z,13.2
2017-12-15T01:11:28.644Z,14.0
2017-12-15T01:21:26.222Z,14.3
2017-12-15T01:31:27.175Z,11.9
2017-12-15T01:41:26.851Z,14.5
2017-12-15T01:51:26.931Z,10.7
2017-12-15T02:01:27.369Z,13.0
2017-12-15T02:11:27.591Z,18.8
2017-12-15T02:21:26.957Z,23.8
2017-12-15T02:31:28.298Z,27.1
2017-12-15T02:41:29.204Z,14.0
2017-12-15T02:51:27.378Z,13.5
2017-12-15T03:01:26.549Z,11.8
2017-12-15T03:11:27.427Z,10.8
2017-12-15T03:21:26.999Z,11.8
2017-12-15T03:31:26.499Z,11.1
2017-12-15T03:41:26.982Z,9.6
2017-12-15T03:51:26.297Z,9.5
2017-12-15T04:01:27.352Z,13.5
2017-12-15T04:11:27.585Z,14.4
2017-12-15T04:21:27.693Z,11.5
2017-12-15T04:31:26.784Z,9.7
2017-12-15T04:41:28.335Z,11.3
2017-12-15T04:51:29.339Z,28.7
2017-12-15T05:01:26.863Z,25.6
2017-12-15T05:11:26.650Z,27.9
2017-12-15T05:21:27.802Z,22.2
2017-12-15T05:31:26.833Z,24.7
2017-12-15T05:41:27.826Z,22.5
2017-12-15T05:51:26.304Z,25.1
2017-12-15T06:01:27.195Z,21.1
2017-12-15T06:11:28.710Z,15.1
2017-12-15T06:21:26.120Z,15.8
2017-12-15T06:31:27.717Z,11.5
2017-12-15T06:41:27.623Z,22.0
2017-12-15T06:51:26.842Z,33.6
2017-12-15T07:01:26.313Z,27.1
2017-12-15T07:11:32.090Z,14.6
2017-12-15T07:21:31.949Z,21.7
2017-12-15T07:31:27.065Z,22.9
2017-12-15T07:41:32.546Z,48.6
2017-12-15T07:51:27.378Z,46.3
2017-12-15T08:01:27.615Z,44.3
2017-12-15T08:11:26.831Z,43.4
2017-12-15T08:21:26.769Z,35.0
2017-12-15T08:31:28.872Z,38.7
2017-12-15T08:41:26.903Z,48.6
2017-12-15T08:51:27.403Z,46.0
2017-12-15T09:01:29.409Z,40.6
2017-12-15T09:11:28.195Z,44.1
2017-12-15T09:21:28.234Z,35.9
2017-12-15T09:31:28.433Z,47.0
2017-12-15T09:41:28.360Z,44.7
2017-12-15T09:51:28.266Z,45.3
2017-12-15T10:01:26.371Z,51.2
2017-12-15T10:11:28.428Z,45.6
2017-12-15T10:21:28.799Z,50.9
2017-12-15T10:31:27.194Z,47.4
2017-12-15T10:41:26.301Z,46.0
2017-12-15T10:51:26.690Z,34.6
2017-12-15T11:01:27.136Z,35.0
2017-12-15T11:11:27.360Z,36.8
2017-12-15T11:21:26.909Z,38.8
2017-12-15T11:31:26.181Z,34.5
2017-12-15T11:41:26.771Z,38.6
2017-12-15T11:51:26.945Z,47.9
2017-12-15T12:01:26.701Z,43.5
2017-12-15T12:11:27.507Z,42.1
2017-12-15T12:21:27.130Z,39.1
2017-12-15T12:31:27.395Z,25.7
2017-12-15T12:41:28.543Z,34.1
2017-12-15T12:51:26.693Z,28.4
2017-12-15T13:01:27.629Z,11.2
2017-12-15T13:11:28.264Z,15.3
2017-12-15T13:21:28.645Z,20.1
2017-12-15T13:31:27.874Z,29.6
2017-12-15T13:41:26.328Z,19.1
2017-12-15T13:51:27.090Z,14.4
2017-12-15T14:01:26.224Z,14.3
2017-12-15T14:11:27.021Z,12.5
2017-12-15T14:21:27.047Z,10.5
2017-12-15T14:31:26.266Z,8.9
2017-12-15T14:41:27.522Z,7.3
2017-12-15T14:51:28.942Z,12.7
2017-12-15T15:01:27.478Z,10.4
2017-12-15T15:11:27.472Z,8.2
2017-12-15T15:21:26.818Z,5.6
2017-12-15T15:31:27.435Z,8.1
2017-12-15T15:41:27.387Z,9.4
2017-12-15T15:51:27.367Z,8.5
2017-12-15T16:01:28.478Z,6.8
2017-12-15T16:11:27.341Z,10.6
2017-12-15T16:21:27.539Z,10.3
2017-12-15T16:31:28.340Z,11.1
2017-12-15T16:41:27.588Z,11.4
2017-12-15T16:51:27.179Z,16.8
2017-12-15T17:01:28.231Z,15.6
2017-12-15T17:11:28.359Z,17.8
2017-12-15T17:21:27.075Z,13.7
2017-12-15T17:31:26.321Z,19.1
2017-12-15T17:41:26.967Z,21.2
2017-12-15T17:51:28.280Z,53.8
2017-12-15T18:01:27.500Z,29.9
2017-12-15T18:11:28.001Z,37.1
2017-12-15T18:21:26.690Z,52.5
2017-12-15T18:31:27.181Z,34.5
2017-12-15T18:41:27.174Z,26.1
2017-12-15T18:51:26.406Z,32.2
2017-12-15T19:01:26.839Z,36.6
2017-12-15T19:11:28.145Z,32.7
2017-12-15T19:21:26.469Z,41.1
2017-12-15T19:31:28.062Z,46.5
2017-12-15T19:41:28.548Z,32.6
2017-12-15T19:51:27.420Z,38.7
2017-12-15T20:01:28.326Z,39.4
2017-12-15T20:11:27.222Z,47.1
2017-12-15T20:21:27.867Z,51.8
2017-12-15T20:31:27.833Z,46.1
2017-12-15T20:41:26.627Z,51.2
2017-12-15T20:51:28.338Z,51.2
2017-12-15T21:01:27.784Z,54.2
2017-12-15T21:11:27.917Z,48.9
2017-12-15T21:21:26.340Z,53.8
2017-12-15T21:31:27.301Z,63.9
2017-12-15T21:41:27.120Z,59.6
2017-12-15T21:51:26.622Z,57.4
2017-12-15T22:01:28.709Z,65.7
2017-12-15T22:11:27.703Z,59.8
2017-12-15T22:21:26.418Z,69.6
2017-12-15T22:31:27.730Z,63.0
2017-12-15T22:41:26.824Z,66.8
2017-12-15T22:51:27.001Z,55.5
2017-12-15T23:01:27.796Z,60.8
2017-12-15T23:11:26.783Z,59.3
2017-12-15T23:21:26.123Z,57.3
2017-12-15T23:31:26.561Z,52.7
2017-12-15T23:41:28.154Z,59.1
2017-12-15T23:51:27.911Z,70.9
